sensor_id;sensor_type;location;lat;lon;timestamp;pressure;altitude;pressure_sealevel;temperature;humidity
44075;BME280;60448;44.956;7.660;2022-09-03T00:10:03;98640;;;26.9;57.6
44075;BME280;60448;44.956;7.660;2022-09-03T00:15:04;98640;;;26.9;57.6
44075;BME280;60448;44.956;7.660;2022-09-03T00:20:09;98640;;;26.9;57.6
44075;BME280;60448;44.956;7.660;2022-09-03T00:25:01;98640;;;26.9;57.4
44075;BME280;60448;44.956;7.660;2022-09-03T00:30:01;98640;;;26.9;57.4
44075;BME280;60448;44.956;7.660;2022-09-03T00:35:01;98640;;;26.9;57.4
44075;BME280;60448;44.956;7.660;2022-09-03T00:40:00;98650;;;26.9;57.3
44075;BME280;60448;44.956;7.660;2022-09-03T00:45:03;98650;;;26.9;57.3
44075;BME280;60448;44.956;7.660;2022-09-03T00:55:03;98670;;;26.9;57.2
44075;BME280;60448;44.956;7.660;2022-09-03T01:00:11;98670;;;26.9;57.2
44075;BME280;60448;44.956;7.660;2022-09-03T01:10:06;98680;;;26.8;56.8
44075;BME280;60448;44.956;7.660;2022-09-03T01:25:05;98680;;;26.8;57.2
44075;BME280;60448;44.956;7.660;2022-09-03T01:30:02;98660;;;26.8;57.3
44075;BME280;60448;44.956;7.660;2022-09-03T01:35:08;98660;;;26.8;57.3
44075;BME280;60448;44.956;7.660;2022-09-03T01:50:02;98670;;;26.7;57.2
44075;BME280;60448;44.956;7.660;2022-09-03T01:55:05;98670;;;26.7;57.2
44075;BME280;60448;44.956;7.660;2022-09-03T02:05:03;98670;;;26.7;57.3
44075;BME280;60448;44.956;7.660;2022-09-03T02:10:00;98670;;;26.7;57.3
44075;BME280;60448;44.956;7.660;2022-09-03T02:15:03;98670;;;26.7;57.3
44075;BME280;60448;44.956;7.660;2022-09-03T02:20:03;98670;;;26.7;57.3
44075;BME280;60448;44.956;7.660;2022-09-03T02:25:00;98670;;;26.7;57.3
44075;BME280;60448;44.956;7.660;2022-09-03T02:30:00;98660;;;26.6;57.3
44075;BME280;60448;44.956;7.660;2022-09-03T02:35:00;98660;;;26.6;57.2
44075;BME280;60448;44.956;7.660;2022-09-03T02:40:00;98660;;;26.6;57.2
44075;BME280;60448;44.956;7.660;2022-09-03T02:45:03;98660;;;26.6;57.2
44075;BME280;60448;44.956;7.660;2022-09-03T02:50:00;98670;;;26.6;57.2
44075;BME280;60448;44.956;7.660;2022-09-03T02:55:00;98670;;;26.6;57.2
44075;BME280;60448;44.956;7.660;2022-09-03T03:00:00;98670;;;26.6;57.2
44075;BME280;60448;44.956;7.660;2022-09-03T03:05:00;98650;;;26.6;57.2
44075;BME280;60448;44.956;7.660;2022-09-03T03:10:00;98650;;;26.6;57.2
44075;BME280;60448;44.956;7.660;2022-09-03T03:15:00;98650;;;26.6;57.2
44075;BME280;60448;44.956;7.660;2022-09-03T03:20:00;98640;;;26.5;57.4
44075;BME280;60448;44.956;7.660;2022-09-03T03:25:00;98640;;;26.5;57.4
44075;BME280;60448;44.956;7.660;2022-09-03T03:30:00;98640;;;26.5;57.4
44075;BME280;60448;44.956;7.660;2022-09-03T03:35:00;98630;;;26.5;57.5
44075;BME280;60448;44.956;7.660;2022-09-03T03:40:00;98630;;;26.5;57.5
44075;BME280;60448;44.956;7.660;2022-09-03T03:45:00;98630;;;26.5;57.5
44075;BME280;60448;44.956;7.660;2022-09-03T03:50:00;98630;;;26.5;57.5
44075;BME280;60448;44.956;7.660;2022-09-03T03:55:00;98610;;;26.5;57.4
44075;BME280;60448;44.956;7.660;2022-09-03T04:00:00;98610;;;26.5;57.4
44075;BME280;60448;44.956;7.660;2022-09-03T04:05:00;98610;;;26.5;57.4
44075;BME280;60448;44.956;7.660;2022-09-03T04:10:00;98600;;;26.5;57.6
44075;BME280;60448;44.956;7.660;2022-09-03T04:15:00;98600;;;26.5;57.6
44075;BME280;60448;44.956;7.660;2022-09-03T04:20:03;98600;;;26.5;57.6
44075;BME280;60448;44.956;7.660;2022-09-03T04:25:00;98610;;;26.5;57.6
44075;BME280;60448;44.956;7.660;2022-09-03T04:30:01;98610;;;26.5;57.6
44075;BME280;60448;44.956;7.660;2022-09-03T04:35:00;98610;;;26.5;57.6
44075;BME280;60448;44.956;7.660;2022-09-03T04:40:00;98620;;;26.4;57.6
44075;BME280;60448;44.956;7.660;2022-09-03T04:45:00;98620;;;26.4;57.6
44075;BME280;60448;44.956;7.660;2022-09-03T04:50:00;98620;;;26.4;57.6
44075;BME280;60448;44.956;7.660;2022-09-03T04:55:00;98630;;;26.4;57.6
44075;BME280;60448;44.956;7.660;2022-09-03T05:00:00;98630;;;26.4;57.7
44075;BME280;60448;44.956;7.660;2022-09-03T05:05:00;98630;;;26.4;57.7
44075;BME280;60448;44.956;7.660;2022-09-03T05:10:00;98630;;;26.4;57.7
44075;BME280;60448;44.956;7.660;2022-09-03T05:15:00;98630;;;26.4;57.5
44075;BME280;60448;44.956;7.660;2022-09-03T05:20:00;98630;;;26.4;57.5
44075;BME280;60448;44.956;7.660;2022-09-03T05:25:00;98630;;;26.4;57.5
44075;BME280;60448;44.956;7.660;2022-09-03T05:30:00;98640;;;26.3;57.7
44075;BME280;60448;44.956;7.660;2022-09-03T05:35:00;98640;;;26.3;57.7
44075;BME280;60448;44.956;7.660;2022-09-03T05:40:00;98640;;;26.3;57.7
44075;BME280;60448;44.956;7.660;2022-09-03T05:45:00;98650;;;26.3;58.0
44075;BME280;60448;44.956;7.660;2022-09-03T05:50:00;98650;;;26.3;58.0
44075;BME280;60448;44.956;7.660;2022-09-03T05:55:00;98650;;;26.3;58.0
44075;BME280;60448;44.956;7.660;2022-09-03T06:00:00;98660;;;26.3;58.5
44075;BME280;60448;44.956;7.660;2022-09-03T06:05:00;98660;;;26.3;58.4
44075;BME280;60448;44.956;7.660;2022-09-03T06:10:00;98660;;;26.3;58.4
44075;BME280;60448;44.956;7.660;2022-09-03T06:15:00;98660;;;26.3;58.4
44075;BME280;60448;44.956;7.660;2022-09-03T06:20:00;98660;;;26.3;58.9
44075;BME280;60448;44.956;7.660;2022-09-03T06:25:00;98660;;;26.3;58.9
44075;BME280;60448;44.956;7.660;2022-09-03T06:30:00;98660;;;26.3;58.9
44075;BME280;60448;44.956;7.660;2022-09-03T06:35:00;98650;;;26.3;59.0
44075;BME280;60448;44.956;7.660;2022-09-03T06:40:00;98650;;;26.3;59.0
44075;BME280;60448;44.956;7.660;2022-09-03T06:45:00;98650;;;26.3;59.0
44075;BME280;60448;44.956;7.660;2022-09-03T06:50:00;98670;;;26.2;58.8
44075;BME280;60448;44.956;7.660;2022-09-03T06:55:00;98670;;;26.2;58.8
44075;BME280;60448;44.956;7.660;2022-09-03T07:00:00;98670;;;26.2;58.8
44075;BME280;60448;44.956;7.660;2022-09-03T07:05:00;98680;;;26.2;58.3
44075;BME280;60448;44.956;7.660;2022-09-03T07:10:00;98680;;;26.2;58.3
44075;BME280;60448;44.956;7.660;2022-09-03T07:15:00;98680;;;26.2;58.3
44075;BME280;60448;44.956;7.660;2022-09-03T07:20:00;98680;;;26.3;57.9
44075;BME280;60448;44.956;7.660;2022-09-03T07:25:00;98670;;;26.3;58.0
44075;BME280;60448;44.956;7.660;2022-09-03T07:30:00;98670;;;26.3;58.0
44075;BME280;60448;44.956;7.660;2022-09-03T07:35:00;98670;;;26.3;58.0
44075;BME280;60448;44.956;7.660;2022-09-03T07:40:00;98680;;;26.2;58.0
44075;BME280;60448;44.956;7.660;2022-09-03T07:45:00;98680;;;26.2;58.0
44075;BME280;60448;44.956;7.660;2022-09-03T07:50:00;98680;;;26.2;58.0
44075;BME280;60448;44.956;7.660;2022-09-03T07:55:00;98700;;;25.9;58.1
44075;BME280;60448;44.956;7.660;2022-09-03T08:00:00;98700;;;25.9;58.1
44075;BME280;60448;44.956;7.660;2022-09-03T08:05:00;98700;;;25.9;58.1
44075;BME280;60448;44.956;7.660;2022-09-03T08:10:00;98720;;;25.4;59.2
44075;BME280;60448;44.956;7.660;2022-09-03T08:15:00;98720;;;25.4;59.2
44075;BME280;60448;44.956;7.660;2022-09-03T08:20:00;98720;;;25.4;59.2
44075;BME280;60448;44.956;7.660;2022-09-03T08:25:00;98710;;;25.2;59.7
44075;BME280;60448;44.956;7.660;2022-09-03T08:30:00;98710;;;25.2;59.7
44075;BME280;60448;44.956;7.660;2022-09-03T08:35:00;98710;;;25.2;59.7
44075;BME280;60448;44.956;7.660;2022-09-03T08:40:00;98730;;;25.3;59.4
44075;BME280;60448;44.956;7.660;2022-09-03T08:45:00;98730;;;25.3;59.3
44075;BME280;60448;44.956;7.660;2022-09-03T08:55:03;98730;;;25.3;59.3
44075;BME280;60448;44.956;7.660;2022-09-03T09:00:00;98760;;;25.4;59.0
44075;BME280;60448;44.956;7.660;2022-09-03T09:15:03;98770;;;25.6;59.2
44075;BME280;60448;44.956;7.660;2022-09-03T09:25:00;98770;;;25.6;59.2
44075;BME280;60448;44.956;7.660;2022-09-03T09:30:00;98770;;;25.8;58.7
44075;BME280;60448;44.956;7.660;2022-09-03T09:35:00;98770;;;25.8;58.7
44075;BME280;60448;44.956;7.660;2022-09-03T09:40:00;98770;;;25.8;58.7
44075;BME280;60448;44.956;7.660;2022-09-03T09:45:07;98770;;;25.8;58.2
44075;BME280;60448;44.956;7.660;2022-09-03T09:50:02;98770;;;25.8;58.2
44075;BME280;60448;44.956;7.660;2022-09-03T10:00:01;98740;;;25.8;58.3
44075;BME280;60448;44.956;7.660;2022-09-03T10:05:00;98740;;;25.8;58.3
44075;BME280;60448;44.956;7.660;2022-09-03T10:10:04;98740;;;25.8;58.3
44075;BME280;60448;44.956;7.660;2022-09-03T10:25:01;98770;;;25.3;59.4
44075;BME280;60448;44.956;7.660;2022-09-03T10:30:00;98770;;;25.3;59.4
44075;BME280;60448;44.956;7.660;2022-09-03T11:00:05;98770;;;25.1;59.7
44075;BME280;60448;44.956;7.660;2022-09-03T11:05:11;98760;;;25.0;59.1
44075;BME280;60448;44.956;7.660;2022-09-03T11:10:03;98760;;;25.1;59.0
44075;BME280;60448;44.956;7.660;2022-09-03T11:15:01;98760;;;25.1;59.0
44075;BME280;60448;44.956;7.660;2022-09-03T11:25:00;98730;;;25.3;58.5
44075;BME280;60448;44.956;7.660;2022-09-03T11:30:02;98730;;;25.3;58.5
44075;BME280;60448;44.956;7.660;2022-09-03T11:35:00;98730;;;25.3;58.5
44075;BME280;60448;44.956;7.660;2022-09-03T11:40:05;98730;;;25.4;57.8
44075;BME280;60448;44.956;7.660;2022-09-03T11:50:05;98730;;;25.4;57.8
44075;BME280;60448;44.956;7.660;2022-09-03T11:55:00;98720;;;25.5;57.9
44075;BME280;60448;44.956;7.660;2022-09-03T12:10:09;98710;;;25.5;57.3
44075;BME280;60448;44.956;7.660;2022-09-03T12:15:03;98710;;;25.5;57.4
44075;BME280;60448;44.956;7.660;2022-09-03T12:20:00;98710;;;25.5;57.4
44075;BME280;60448;44.956;7.660;2022-09-03T12:25:09;98710;;;25.5;56.9
44075;BME280;60448;44.956;7.660;2022-09-03T12:30:00;98710;;;25.5;56.9
44075;BME280;60448;44.956;7.660;2022-09-03T12:35:10;98710;;;25.5;56.9
44075;BME280;60448;44.956;7.660;2022-09-03T12:40:00;98710;;;25.5;56.9
44075;BME280;60448;44.956;7.660;2022-09-03T12:45:07;98690;;;25.6;56.3
44075;BME280;60448;44.956;7.660;2022-09-03T12:50:04;98690;;;25.6;56.3
44075;BME280;60448;44.956;7.660;2022-09-03T12:55:05;98690;;;25.6;56.3
44075;BME280;60448;44.956;7.660;2022-09-03T13:00:02;98680;;;25.6;56.1
44075;BME280;60448;44.956;7.660;2022-09-03T13:05:00;98680;;;25.6;56.1
44075;BME280;60448;44.956;7.660;2022-09-03T13:10:03;98680;;;25.6;56.1
44075;BME280;60448;44.956;7.660;2022-09-03T13:15:08;98670;;;25.7;55.6
44075;BME280;60448;44.956;7.660;2022-09-03T13:30:04;98660;;;25.8;56.1
44075;BME280;60448;44.956;7.660;2022-09-03T13:35:06;98660;;;25.8;56.1
44075;BME280;60448;44.956;7.660;2022-09-03T13:45:05;98660;;;25.8;56.1
44075;BME280;60448;44.956;7.660;2022-09-03T13:50:17;98630;;;25.9;55.4
44075;BME280;60448;44.956;7.660;2022-09-03T13:55:02;98630;;;25.9;55.4
44075;BME280;60448;44.956;7.660;2022-09-03T14:00:02;98630;;;25.9;55.4
44075;BME280;60448;44.956;7.660;2022-09-03T14:10:03;98640;;;26.0;55.0
44075;BME280;60448;44.956;7.660;2022-09-03T14:20:04;98630;;;26.1;54.9
44075;BME280;60448;44.956;7.660;2022-09-03T14:25:02;98630;;;26.1;54.9
44075;BME280;60448;44.956;7.660;2022-09-03T15:00:08;98620;;;26.2;54.9
44075;BME280;60448;44.956;7.660;2022-09-03T15:15:03;98630;;;26.2;54.9
44075;BME280;60448;44.956;7.660;2022-09-03T15:20:10;98630;;;26.2;54.9
44075;BME280;60448;44.956;7.660;2022-09-03T15:30:08;98620;;;26.2;55.0
44075;BME280;60448;44.956;7.660;2022-09-03T15:35:05;98620;;;26.2;55.0
44075;BME280;60448;44.956;7.660;2022-09-03T15:45:02;98610;;;26.3;54.7
44075;BME280;60448;44.956;7.660;2022-09-03T15:50:02;98610;;;26.3;54.7
44075;BME280;60448;44.956;7.660;2022-09-03T16:00:01;98620;;;26.4;54.8
44075;BME280;60448;44.956;7.660;2022-09-03T16:05:10;98620;;;26.4;54.8
44075;BME280;60448;44.956;7.660;2022-09-03T16:15:06;98640;;;26.4;54.9
44075;BME280;60448;44.956;7.660;2022-09-03T16:25:02;98640;;;26.4;54.9
44075;BME280;60448;44.956;7.660;2022-09-03T16:30:02;98650;;;26.5;55.1
44075;BME280;60448;44.956;7.660;2022-09-03T16:40:11;98650;;;26.5;55.1
44075;BME280;60448;44.956;7.660;2022-09-03T16:50:13;98660;;;26.5;54.9
44075;BME280;60448;44.956;7.660;2022-09-03T17:00:05;98660;;;26.4;55.0
44075;BME280;60448;44.956;7.660;2022-09-03T17:10:02;98660;;;26.4;55.0
44075;BME280;60448;44.956;7.660;2022-09-03T17:20:04;98660;;;26.4;54.7
44075;BME280;60448;44.956;7.660;2022-09-03T17:25:00;98660;;;26.4;54.7
44075;BME280;60448;44.956;7.660;2022-09-03T17:45:04;98660;;;26.4;55.0
44075;BME280;60448;44.956;7.660;2022-09-03T17:50:11;98700;;;26.4;55.6
44075;BME280;60448;44.956;7.660;2022-09-03T17:55:07;98700;;;26.4;55.6
44075;BME280;60448;44.956;7.660;2022-09-03T18:00:03;98700;;;26.4;55.6
44075;BME280;60448;44.956;7.660;2022-09-03T18:05:03;98730;;;26.5;55.5
44075;BME280;60448;44.956;7.660;2022-09-03T18:10:03;98730;;;26.5;55.5
44075;BME280;60448;44.956;7.660;2022-09-03T18:20:02;98740;;;26.5;55.0
44075;BME280;60448;44.956;7.660;2022-09-03T18:25:00;98750;;;26.5;55.0
44075;BME280;60448;44.956;7.660;2022-09-03T18:30:00;98750;;;26.5;55.0
44075;BME280;60448;44.956;7.660;2022-09-03T18:35:00;98750;;;26.5;55.0
44075;BME280;60448;44.956;7.660;2022-09-03T18:40:00;98750;;;26.6;54.9
44075;BME280;60448;44.956;7.660;2022-09-03T18:50:03;98750;;;26.6;54.9
44075;BME280;60448;44.956;7.660;2022-09-03T18:55:13;98770;;;26.6;54.9
44075;BME280;60448;44.956;7.660;2022-09-03T19:00:09;98770;;;26.6;54.9
44075;BME280;60448;44.956;7.660;2022-09-03T19:05:11;98770;;;26.6;54.9
44075;BME280;60448;44.956;7.660;2022-09-03T19:25:02;98800;;;26.5;57.5
44075;BME280;60448;44.956;7.660;2022-09-03T19:30:08;98800;;;26.5;57.9
44075;BME280;60448;44.956;7.660;2022-09-03T19:35:04;98800;;;26.5;57.9
44075;BME280;60448;44.956;7.660;2022-09-03T19:55:00;98800;;;26.5;58.6
44075;BME280;60448;44.956;7.660;2022-09-03T20:00:01;98820;;;26.5;58.5
44075;BME280;60448;44.956;7.660;2022-09-03T20:05:01;98820;;;26.5;58.5
44075;BME280;60448;44.956;7.660;2022-09-03T20:10:01;98820;;;26.5;58.5
44075;BME280;60448;44.956;7.660;2022-09-03T20:15:02;98820;;;26.5;58.6
44075;BME280;60448;44.956;7.660;2022-09-03T20:25:08;98820;;;26.5;58.6
44075;BME280;60448;44.956;7.660;2022-09-03T20:30:09;98820;;;26.5;58.5
44075;BME280;60448;44.956;7.660;2022-09-03T20:35:34;98820;;;26.5;58.5
44075;BME280;60448;44.956;7.660;2022-09-03T20:55:03;98810;;;26.5;58.2
44075;BME280;60448;44.956;7.660;2022-09-03T21:00:02;98810;;;26.5;58.2
44075;BME280;60448;44.956;7.660;2022-09-03T21:10:12;98840;;;26.5;58.4
44075;BME280;60448;44.956;7.660;2022-09-03T21:15:02;98840;;;26.5;58.4
44075;BME280;60448;44.956;7.660;2022-09-03T21:25:00;98850;;;26.4;58.9
44075;BME280;60448;44.956;7.660;2022-09-03T21:30:08;98850;;;26.4;58.9
44075;BME280;60448;44.956;7.660;2022-09-03T21:35:02;98860;;;26.5;58.9
44075;BME280;60448;44.956;7.660;2022-09-03T21:40:00;98860;;;26.5;58.9
44075;BME280;60448;44.956;7.660;2022-09-03T21:50:13;98870;;;26.5;59.1
44075;BME280;60448;44.956;7.660;2022-09-03T21:55:00;98870;;;26.5;59.1
44075;BME280;60448;44.956;7.660;2022-09-03T22:05:00;98870;;;26.5;59.3
44075;BME280;60448;44.956;7.660;2022-09-03T22:15:00;98870;;;26.5;59.3
44075;BME280;60448;44.956;7.660;2022-09-03T22:20:02;98870;;;26.5;59.3
44075;BME280;60448;44.956;7.660;2022-09-03T22:25:02;98870;;;26.5;59.1
44075;BME280;60448;44.956;7.660;2022-09-03T22:30:08;98870;;;26.5;59.1
44075;BME280;60448;44.956;7.660;2022-09-03T22:40:17;98890;;;26.6;59.5
44075;BME280;60448;44.956;7.660;2022-09-03T23:00:03;98890;;;26.6;59.6
44075;BME280;60448;44.956;7.660;2022-09-03T23:05:02;98890;;;26.6;59.6
44075;BME280;60448;44.956;7.660;2022-09-03T23:10:03;98900;;;26.5;59.9
44075;BME280;60448;44.956;7.660;2022-09-03T23:15:00;98900;;;26.5;59.9
44075;BME280;60448;44.956;7.660;2022-09-03T23:30:00;98880;;;26.4;60.1
44075;BME280;60448;44.956;7.660;2022-09-03T23:35:02;98880;;;26.4;60.1
44075;BME280;60448;44.956;7.660;2022-09-03T23:50:07;98870;;;26.4;59.6
44075;BME280;60448;44.956;7.660;2022-09-03T23:55:18;98870;;;26.4;59.6
